Time;durP1;ratioP1;P1;durP2;ratioP2;P2;SDS_P1;SDS_P2;PMS_P1;PMS_P2;Temp;Humidity;BMP_temperature;BMP_pressure;BME280_temperature;BME280_humidity;BME280_pressure;Samples;Min_cycle;Max_cycle;Signal;HPM_P1;HPM_P2
2022/03/02 00:01:25;;;;;;;63.20;41.47;;;5.40;99.90;;;;;;4978971;28;20107;-73
2022/03/02 00:03:51;;;;;;;56.35;39.90;;;5.50;99.90;;;;;;4996005;28;20073;-73
2022/03/02 00:06:17;;;;;;;59.38;39.88;;;5.40;99.90;;;;;;4978541;28;20053;-72
2022/03/02 00:08:42;;;;;;;55.75;39.45;;;5.50;99.90;;;;;;4995776;28;20038;-74
2022/03/02 00:11:09;;;;;;;59.97;40.70;;;5.50;99.90;;;;;;4995598;28;20042;-75
2022/03/02 00:13:34;;;;;;;61.58;40.45;;;5.50;99.90;;;;;;4995313;28;20458;-74
2022/03/02 00:16:00;;;;;;;65.90;41.90;;;5.50;99.90;;;;;;4995874;28;20183;-74
2022/03/02 00:18:26;;;;;;;58.97;39.33;;;5.50;99.90;;;;;;4992504;28;20052;-74
2022/03/02 00:20:52;;;;;;;61.17;40.50;;;5.50;99.90;;;;;;4995231;28;20341;-75
2022/03/02 00:23:18;;;;;;;61.60;41.53;;;5.50;99.90;;;;;;4995588;28;20042;-73
2022/03/02 00:25:43;;;;;;;58.40;40.38;;;5.50;99.90;;;;;;4995112;28;20344;-73
2022/03/02 00:28:09;;;;;;;61.63;40.78;;;5.50;99.90;;;;;;4996021;28;20544;-74
2022/03/02 00:30:34;;;;;;;73.10;41.13;;;5.40;99.90;;;;;;4995148;28;20049;-72
2022/03/02 00:33:00;;;;;;;61.60;40.25;;;5.50;99.90;;;;;;4995008;28;20049;-74
2022/03/02 00:35:26;;;;;;;60.40;41.63;;;5.40;99.90;;;;;;4995486;28;20045;-73
2022/03/02 00:37:52;;;;;;;58.40;40.42;;;5.50;99.90;;;;;;4995379;28;20042;-74
2022/03/02 00:40:18;;;;;;;61.22;41.53;;;5.40;99.90;;;;;;4995277;28;20034;-74
2022/03/02 00:42:44;;;;;;;61.67;40.22;;;5.40;99.90;;;;;;4999148;28;20052;-74
2022/03/02 00:45:11;;;;;;;62.55;38.83;;;5.40;99.90;;;;;;4999520;28;20049;-75
2022/03/02 00:47:39;;;;;;;57.95;38.67;;;5.40;99.90;;;;;;4999734;28;20039;-73
2022/03/02 00:50:05;;;;;;;58.13;38.30;;;5.40;99.90;;;;;;4998909;28;20170;-72
2022/03/02 00:52:31;;;;;;;60.22;40.00;;;5.40;99.90;;;;;;4999294;28;20137;-74
2022/03/02 00:54:57;;;;;;;55.65;37.53;;;5.40;99.90;;;;;;4999124;28;20113;-73
2022/03/02 00:57:23;;;;;;;51.70;35.70;;;5.40;99.90;;;;;;4999116;28;20035;-74
2022/03/02 00:59:48;;;;;;;63.03;38.90;;;5.40;99.90;;;;;;4999227;28;20045;-73
2022/03/02 01:02:14;;;;;;;56.13;36.53;;;5.40;99.90;;;;;;4999157;28;20038;-75
2022/03/02 01:04:39;;;;;;;57.33;38.58;;;5.40;99.90;;;;;;4999070;28;20065;-75
2022/03/02 01:07:05;;;;;;;56.97;38.38;;;5.40;99.90;;;;;;4999230;28;20046;-74
2022/03/02 01:09:31;;;;;;;55.30;37.75;;;5.40;99.90;;;;;;4998013;28;20125;-74
2022/03/02 01:11:58;;;;;;;60.65;39.20;;;5.40;99.90;;;;;;4999151;28;20127;-73
2022/03/02 01:14:24;;;;;;;54.83;37.15;;;5.40;99.90;;;;;;4999052;28;20038;-75
2022/03/02 01:16:50;;;;;;;54.42;36.97;;;5.40;99.90;;;;;;4999029;28;20065;-74
2022/03/02 01:19:15;;;;;;;58.92;37.40;;;5.40;99.90;;;;;;4998590;28;20054;-74
2022/03/02 01:21:41;;;;;;;63.38;39.75;;;5.30;99.90;;;;;;4981942;28;20042;-73
2022/03/02 01:24:08;;;;;;;57.38;38.58;;;5.30;99.90;;;;;;4998406;28;20070;-73
2022/03/02 01:26:36;;;;;;;58.47;37.55;;;5.30;99.90;;;;;;4998711;28;20042;-72
2022/03/02 01:29:02;;;;;;;56.53;38.20;;;5.30;99.90;;;;;;4981336;28;20061;-73
2022/03/02 01:31:28;;;;;;;58.17;38.28;;;5.30;99.90;;;;;;4998964;28;20042;-74
2022/03/02 01:33:55;;;;;;;58.40;39.15;;;5.30;99.90;;;;;;4981275;28;20112;-73
2022/03/02 01:36:21;;;;;;;57.30;38.38;;;5.20;99.90;;;;;;4998456;28;20129;-74
2022/03/02 01:38:47;;;;;;;58.55;38.72;;;5.20;99.90;;;;;;4998447;28;20104;-73
2022/03/02 01:41:18;;;;;;;60.78;39.35;;;5.20;99.90;;;;;;4998380;28;20046;-75
2022/03/02 01:43:47;;;;;;;62.15;37.85;;;5.20;99.90;;;;;;4998293;28;20114;-74
2022/03/02 01:46:14;;;;;;;59.00;38.42;;;5.20;99.90;;;;;;4998116;28;20048;-75
2022/03/02 01:48:40;;;;;;;59.38;39.92;;;5.20;99.90;;;;;;4997664;28;20070;-73
2022/03/02 01:51:06;;;;;;;60.85;38.55;;;5.10;99.90;;;;;;4980529;28;20121;-74
2022/03/02 01:53:32;;;;;;;56.67;37.28;;;5.10;99.90;;;;;;4996945;28;20050;-73
2022/03/02 01:55:59;;;;;;;62.58;38.88;;;5.10;99.90;;;;;;4981571;28;20054;-73
2022/03/02 01:58:26;;;;;;;60.17;36.60;;;5.10;99.90;;;;;;4998176;28;20034;-73
2022/03/02 02:00:52;;;;;;;63.42;39.08;;;5.10;99.90;;;;;;4997608;28;20326;-73
2022/03/02 02:03:19;;;;;;;57.83;38.15;;;5.10;99.90;;;;;;4997775;28;20053;-74
2022/03/02 02:05:44;;;;;;;57.38;37.35;;;5.10;99.90;;;;;;4981035;28;20042;-72
2022/03/02 02:08:10;;;;;;;58.60;37.15;;;5.10;99.90;;;;;;4997991;28;20193;-73
2022/03/02 02:10:37;;;;;;;62.88;40.03;;;5.10;99.90;;;;;;4997927;28;20053;-74
2022/03/02 02:13:03;;;;;;;60.35;39.58;;;5.10;99.90;;;;;;4998044;28;20046;-73
2022/03/02 02:15:29;;;;;;;58.47;36.40;;;5.10;99.90;;;;;;4997803;28;20460;-73
2022/03/02 02:17:55;;;;;;;60.45;37.67;;;5.20;99.90;;;;;;4997260;28;20041;-73
2022/03/02 02:20:23;;;;;;;61.05;38.03;;;5.10;99.90;;;;;;4980949;28;20137;-74
2022/03/02 02:22:49;;;;;;;60.78;37.63;;;5.10;99.90;;;;;;4997663;28;20057;-74
2022/03/02 02:25:16;;;;;;;56.53;38.35;;;5.10;99.90;;;;;;4964203;28;20116;-73
2022/03/02 02:27:44;;;;;;;62.35;39.28;;;5.10;99.90;;;;;;4997755;28;20038;-74
2022/03/02 02:30:11;;;;;;;62.55;39.22;;;5.10;99.90;;;;;;4997305;28;20125;-73
2022/03/02 02:32:38;;;;;;;65.07;40.65;;;5.10;99.90;;;;;;4997590;28;20049;-73
2022/03/02 02:35:05;;;;;;;61.85;39.65;;;5.00;99.90;;;;;;4997610;28;20038;-72
2022/03/02 02:37:33;;;;;;;58.35;37.03;;;5.00;99.90;;;;;;4997267;28;20342;-72
2022/03/02 02:40:01;;;;;;;61.90;39.55;;;5.00;99.90;;;;;;4997584;28;20090;-74
2022/03/02 02:42:27;;;;;;;60.40;38.97;;;5.00;99.90;;;;;;4997394;28;20042;-74
2022/03/02 02:44:54;;;;;;;61.42;39.70;;;5.00;99.90;;;;;;4997234;28;20046;-74
2022/03/02 02:47:20;;;;;;;62.53;38.13;;;4.90;99.90;;;;;;4997149;28;20069;-74
2022/03/02 02:49:45;;;;;;;63.47;39.85;;;4.90;99.90;;;;;;4996996;28;20078;-73
2022/03/02 02:52:11;;;;;;;59.50;38.25;;;4.90;99.90;;;;;;4996971;28;20054;-72
2022/03/02 02:54:37;;;;;;;64.03;39.67;;;4.90;99.90;;;;;;4997119;28;20049;-72
2022/03/02 02:57:04;;;;;;;63.35;39.47;;;4.80;99.90;;;;;;4996664;28;20042;-72
2022/03/02 02:59:30;;;;;;;60.75;39.45;;;4.80;99.90;;;;;;4996964;28;20046;-73
2022/03/02 03:01:56;;;;;;;58.83;38.90;;;4.70;99.90;;;;;;4997022;28;20089;-73
2022/03/02 03:04:21;;;;;;;67.57;40.33;;;4.70;99.90;;;;;;4995971;28;20159;-73
2022/03/02 03:06:47;;;;;;;62.08;40.22;;;4.60;99.90;;;;;;4963543;28;20038;-72
2022/03/02 03:09:13;;;;;;;70.72;40.75;;;4.60;99.90;;;;;;4979810;28;20460;-72
2022/03/02 03:11:39;;;;;;;67.82;41.33;;;4.50;99.90;;;;;;4996933;28;20443;-74
2022/03/02 03:14:09;;;;;;;64.35;40.30;;;4.50;99.90;;;;;;4996443;28;20188;-73
2022/03/02 03:16:35;;;;;;;67.70;41.72;;;4.50;99.90;;;;;;4996239;28;20030;-74
2022/03/02 03:19:00;;;;;;;68.18;41.85;;;4.40;99.90;;;;;;4996523;28;20057;-72
2022/03/02 03:21:26;;;;;;;70.50;41.38;;;4.40;99.90;;;;;;4996714;28;20079;-73
2022/03/02 03:23:51;;;;;;;73.25;41.83;;;4.30;99.90;;;;;;4996605;28;20046;-74
2022/03/02 03:26:17;;;;;;;81.78;44.95;;;4.20;99.90;;;;;;4996769;28;20077;-73
2022/03/02 03:28:42;;;;;;;66.20;41.22;;;4.20;99.90;;;;;;4996453;28;20092;-74
2022/03/02 03:31:08;;;;;;;70.57;41.70;;;4.20;99.90;;;;;;4996111;28;20042;-73
2022/03/02 03:33:34;;;;;;;78.93;43.90;;;4.10;99.90;;;;;;4979115;28;20060;-72
2022/03/02 03:35:59;;;;;;;72.25;40.65;;;4.10;99.90;;;;;;4946110;28;20364;-72
2022/03/02 03:38:25;;;;;;;75.50;41.75;;;4.00;99.90;;;;;;4996180;28;20080;-73
2022/03/02 03:40:50;;;;;;;75.85;41.58;;;3.90;99.90;;;;;;4996019;28;20048;-73
2022/03/02 03:43:16;;;;;;;73.18;42.85;;;3.90;99.90;;;;;;4996020;28;20030;-73
2022/03/02 03:45:41;;;;;;;76.78;41.75;;;3.90;99.90;;;;;;4995960;28;20042;-74
2022/03/02 03:48:07;;;;;;;85.63;44.25;;;3.80;99.90;;;;;;4978674;28;20483;-72
2022/03/02 03:50:33;;;;;;;77.72;43.10;;;3.80;99.90;;;;;;4995687;28;20472;-74
2022/03/02 03:52:58;;;;;;;80.25;43.20;;;3.80;99.90;;;;;;4995941;28;20105;-74
2022/03/02 03:55:24;;;;;;;74.35;42.33;;;3.70;99.90;;;;;;4995764;28;20042;-72
2022/03/02 03:57:50;;;;;;;79.07;42.15;;;3.70;99.90;;;;;;4995923;28;20042;-74
2022/03/02 04:00:18;;;;;;;80.47;42.22;;;3.70;99.90;;;;;;4995647;28;20031;-72
2022/03/02 04:02:45;;;;;;;85.63;45.20;;;3.70;99.90;;;;;;4978473;28;20042;-72
2022/03/02 04:05:11;;;;;;;90.00;46.35;;;3.70;99.90;;;;;;4995590;28;20085;-73
2022/03/02 04:07:38;;;;;;;85.57;44.55;;;3.70;99.90;;;;;;4996042;28;20093;-73
2022/03/02 04:10:08;;;;;;;85.03;43.10;;;3.70;99.90;;;;;;4979004;28;20042;-72
2022/03/02 04:12:34;;;;;;;85.22;43.67;;;3.70;99.90;;;;;;4995673;28;20071;-73
2022/03/02 04:15:00;;;;;;;82.10;44.40;;;3.70;99.90;;;;;;4995677;28;20437;-73
2022/03/02 04:17:26;;;;;;;81.43;43.17;;;3.60;99.90;;;;;;4977902;28;20049;-73
2022/03/02 04:19:51;;;;;;;80.53;43.17;;;3.60;99.90;;;;;;4995749;28;20042;-74
2022/03/02 04:22:17;;;;;;;82.30;43.38;;;3.60;99.90;;;;;;4995352;28;20326;-72
2022/03/02 04:24:43;;;;;;;86.60;45.88;;;3.60;99.90;;;;;;4995743;28;20121;-72
2022/03/02 04:27:09;;;;;;;77.90;42.58;;;3.50;99.90;;;;;;4995614;28;20108;-73
2022/03/02 04:29:35;;;;;;;80.30;44.83;;;3.50;99.90;;;;;;4995518;28;20429;-72
2022/03/02 04:32:00;;;;;;;85.57;44.53;;;3.50;99.90;;;;;;4995358;28;20037;-73
2022/03/02 04:34:26;;;;;;;81.85;45.22;;;3.50;99.90;;;;;;4978708;28;20068;-73
2022/03/02 04:36:53;;;;;;;79.20;44.05;;;3.50;99.90;;;;;;4995303;28;20038;-74
2022/03/02 04:39:19;;;;;;;82.25;45.13;;;3.40;99.90;;;;;;4995370;28;20125;-73
2022/03/02 04:41:44;;;;;;;82.85;46.17;;;3.40;99.90;;;;;;4995274;28;20085;-72
2022/03/02 04:44:10;;;;;;;84.82;45.90;;;3.40;99.90;;;;;;4995500;28;20073;-72
2022/03/02 04:46:36;;;;;;;82.25;44.30;;;3.40;99.90;;;;;;4995210;28;20117;-72
2022/03/02 04:49:10;;;;;;;84.35;44.42;;;3.40;99.90;;;;;;4995480;28;20169;-74
2022/03/02 04:51:37;;;;;;;78.00;43.78;;;3.40;99.90;;;;;;4978327;28;20050;-74
2022/03/02 04:54:03;;;;;;;82.10;44.50;;;3.30;99.90;;;;;;4995145;28;20046;-72
2022/03/02 04:56:29;;;;;;;80.75;43.60;;;3.30;99.90;;;;;;4978457;28;20054;-72
2022/03/02 04:58:55;;;;;;;86.18;44.47;;;3.30;99.90;;;;;;4995359;28;20371;-74
2022/03/02 05:01:20;;;;;;;82.90;44.72;;;3.20;99.90;;;;;;4995179;28;20117;-72
2022/03/02 05:03:46;;;;;;;81.65;46.53;;;3.20;99.90;;;;;;4992224;28;20050;-73
2022/03/02 05:06:11;;;;;;;82.10;44.95;;;3.20;99.90;;;;;;4995343;28;20126;-72
2022/03/02 05:08:37;;;;;;;86.68;45.75;;;3.20;99.90;;;;;;4995287;28;20042;-73
2022/03/02 05:11:03;;;;;;;81.00;44.83;;;3.20;99.90;;;;;;4995040;28;20689;-73
2022/03/02 05:13:29;;;;;;;80.63;43.63;;;3.10;99.90;;;;;;4995078;28;20431;-74
2022/03/02 05:15:55;;;;;;;86.47;46.17;;;3.10;99.90;;;;;;4995152;28;20489;-72
2022/03/02 05:18:21;;;;;;;84.25;45.25;;;3.10;99.90;;;;;;4995260;28;20039;-73
2022/03/02 05:20:47;;;;;;;80.88;46.60;;;3.10;99.90;;;;;;4995107;28;20038;-73
2022/03/02 05:23:12;;;;;;;88.47;44.70;;;3.10;99.90;;;;;;4994832;28;20049;-73
2022/03/02 05:25:38;;;;;;;87.25;44.20;;;3.10;99.90;;;;;;4994687;28;20356;-72
2022/03/02 05:28:04;;;;;;;88.35;46.38;;;3.00;99.90;;;;;;4980050;28;20074;-74
2022/03/02 05:30:29;;;;;;;84.95;46.53;;;3.00;99.90;;;;;;4998688;28;20476;-72
2022/03/02 05:32:55;;;;;;;83.22;44.20;;;3.00;99.90;;;;;;4998745;28;20441;-72
2022/03/02 05:35:21;;;;;;;83.32;46.17;;;2.90;99.90;;;;;;4981054;28;20117;-73
2022/03/02 05:37:47;;;;;;;82.85;43.65;;;2.90;99.90;;;;;;4998485;28;20073;-73
2022/03/02 05:40:17;;;;;;;77.70;45.80;;;2.90;99.90;;;;;;4998130;28;20113;-71
2022/03/02 05:42:43;;;;;;;83.90;45.90;;;2.90;99.90;;;;;;4981512;28;20058;-73
2022/03/02 05:45:09;;;;;;;81.18;46.20;;;2.90;99.90;;;;;;4980510;28;20050;-71
2022/03/02 05:47:35;;;;;;;79.18;45.00;;;2.90;99.90;;;;;;4998412;28;20094;-73
2022/03/02 05:50:03;;;;;;;77.03;42.67;;;2.80;99.90;;;;;;4998033;28;20127;-71
2022/03/02 05:52:28;;;;;;;81.13;45.97;;;2.90;99.90;;;;;;4998209;28;20097;-73
2022/03/02 05:54:54;;;;;;;81.93;45.05;;;2.90;99.90;;;;;;4998110;28;20143;-73
2022/03/02 05:57:19;;;;;;;78.45;44.83;;;2.80;99.90;;;;;;4981509;28;20176;-73
2022/03/02 05:59:45;;;;;;;82.65;46.90;;;2.90;99.90;;;;;;4998002;28;20464;-73
2022/03/02 06:02:10;;;;;;;81.68;45.38;;;2.80;99.90;;;;;;4997817;28;20046;-73
2022/03/02 06:04:36;;;;;;;80.25;46.10;;;2.70;99.90;;;;;;4980597;28;20042;-74
2022/03/02 06:07:02;;;;;;;77.20;45.97;;;2.70;99.90;;;;;;4980951;28;20042;-76
2022/03/02 06:09:27;;;;;;;75.68;45.20;;;2.80;99.90;;;;;;4980922;28;20745;-71
2022/03/02 06:11:53;;;;;;;75.85;44.72;;;2.70;99.90;;;;;;4997887;28;20038;-74
2022/03/02 06:14:19;;;;;;;78.00;42.72;;;2.70;99.90;;;;;;4980921;28;20054;-71
2022/03/02 06:16:45;;;;;;;80.47;45.08;;;2.70;99.90;;;;;;4997797;28;20080;-82
2022/03/02 06:19:12;;;;;;;75.70;43.35;;;2.60;99.90;;;;;;4976413;28;20035;-78
2022/03/02 06:21:40;;;;;;;80.43;45.88;;;2.60;99.90;;;;;;4963780;28;20104;-75
2022/03/02 06:24:07;;;;;;;73.75;44.85;;;2.60;99.90;;;;;;4977042;28;20109;-76
2022/03/02 06:26:33;;;;;;;79.68;45.70;;;2.60;99.90;;;;;;4980857;28;20034;-76
2022/03/02 06:28:58;;;;;;;79.30;45.47;;;2.60;99.90;;;;;;4986006;28;20061;-79
2022/03/02 06:31:24;;;;;;;71.72;44.20;;;2.50;99.90;;;;;;4964143;28;20042;-77
2022/03/02 06:33:50;;;;;;;77.95;45.03;;;2.50;99.90;;;;;;4980726;28;20050;-77
2022/03/02 06:36:16;;;;;;;75.35;44.15;;;2.50;99.90;;;;;;4997705;28;20094;-76
2022/03/02 06:38:41;;;;;;;76.68;45.33;;;2.60;99.90;;;;;;4979301;28;20100;-77
2022/03/02 06:41:24;;;;;;;77.75;46.20;;;2.50;99.90;;;;;;4963862;28;20050;-75
2022/03/02 06:44:02;;;;;;;75.43;45.33;;;2.60;99.90;;;;;;4961107;28;20440;-75
2022/03/02 06:46:47;;;;;;;75.88;44.83;;;2.50;99.90;;;;;;4960851;28;20046;-74
2022/03/02 06:49:21;;;;;;;;;;;2.60;99.90;;;;;;4944293;28;20479;-76
2022/03/02 06:51:47;;;;;;;75.27;43.10;;;2.60;99.90;;;;;;4977572;28;20383;-76
2022/03/02 06:54:17;;;;;;;73.82;44.55;;;2.60;99.90;;;;;;4977185;28;20173;-74
2022/03/02 06:56:50;;;;;;;75.10;45.25;;;2.60;99.90;;;;;;4997118;28;20077;-74
2022/03/02 06:59:28;;;;;;;74.10;44.38;;;2.60;99.90;;;;;;4996585;28;20054;-74
2022/03/02 07:02:00;;;;;;;80.13;47.22;;;2.60;99.90;;;;;;4996681;28;20049;-75
2022/03/02 07:04:27;;;;;;;79.78;46.72;;;2.60;99.90;;;;;;4979946;28;20069;-74
2022/03/02 07:06:54;;;;;;;76.60;45.75;;;2.70;99.90;;;;;;4996848;28;20053;-74
2022/03/02 07:09:20;;;;;;;75.97;45.75;;;2.70;99.90;;;;;;4993652;28;20129;-74
2022/03/02 07:11:47;;;;;;;79.32;45.50;;;2.70;99.90;;;;;;4979307;28;20177;-75
2022/03/02 07:14:15;;;;;;;73.63;44.17;;;2.70;99.90;;;;;;4963763;28;20042;-79
2022/03/02 07:16:43;;;;;;;73.03;43.47;;;2.80;99.90;;;;;;4979731;28;20034;-74
2022/03/02 07:19:09;;;;;;;75.93;45.92;;;2.80;99.90;;;;;;4997075;28;20046;-76
2022/03/02 07:21:39;;;;;;;77.80;44.20;;;2.80;99.90;;;;;;4979360;28;20038;-75
2022/03/02 07:24:19;;;;;;;78.30;47.13;;;2.90;99.90;;;;;;4979290;28;20047;-76
2022/03/02 07:26:49;;;;;;;75.13;43.95;;;2.90;99.90;;;;;;4979272;28;20057;-77
2022/03/02 07:29:15;;;;;;;75.60;45.70;;;2.90;99.90;;;;;;4996304;28;20137;-75
2022/03/02 07:31:41;;;;;;;75.72;42.60;;;2.90;99.90;;;;;;4979325;28;20054;-76
2022/03/02 07:34:13;;;;;;;77.60;45.08;;;2.90;99.90;;;;;;4979016;28;20058;-75
2022/03/02 07:36:40;;;;;;;83.80;47.55;;;3.00;99.90;;;;;;4996360;28;20054;-77
2022/03/02 07:39:07;;;;;;;71.40;44.08;;;3.00;99.90;;;;;;4995940;28;20112;-75
2022/03/02 07:41:33;;;;;;;75.65;46.42;;;3.00;99.90;;;;;;5016071;28;20046;-77
2022/03/02 07:43:59;;;;;;;77.53;44.22;;;3.10;99.90;;;;;;5015837;28;20049;-76
2022/03/02 07:46:29;;;;;;;72.05;45.42;;;3.10;99.90;;;;;;4998507;28;20348;-76
2022/03/02 07:48:58;;;;;;;72.00;45.00;;;3.10;99.90;;;;;;5015689;28;20052;-76
2022/03/02 07:51:24;;;;;;;68.13;44.05;;;3.20;99.90;;;;;;4997690;28;20360;-75
2022/03/02 07:53:51;;;;;;;72.85;43.17;;;3.20;99.90;;;;;;4997335;28;20503;-76
2022/03/02 07:56:19;;;;;;;71.07;44.50;;;3.20;99.90;;;;;;4995977;28;20181;-76
2022/03/02 07:58:46;;;;;;;72.40;44.03;;;3.30;99.90;;;;;;4963046;28;20042;-76
2022/03/02 08:01:17;;;;;;;72.95;43.72;;;3.30;99.90;;;;;;4979185;28;20471;-76
2022/03/02 08:03:44;;;;;;;68.63;43.70;;;3.30;99.90;;;;;;4995698;28;20120;-76
2022/03/02 08:06:10;;;;;;;71.32;44.35;;;3.40;99.90;;;;;;4978508;28;20038;-76
2022/03/02 08:08:37;;;;;;;73.75;43.70;;;3.40;99.90;;;;;;4978042;28;20042;-75
2022/03/02 08:11:04;;;;;;;73.82;44.67;;;3.40;99.90;;;;;;4995564;28;20049;-77
2022/03/02 08:13:31;;;;;;;72.38;43.25;;;3.50;99.90;;;;;;4978835;28;20042;-75
2022/03/02 08:15:57;;;;;;;74.38;45.13;;;3.50;99.90;;;;;;4978428;28;20061;-77
2022/03/02 08:18:23;;;;;;;76.90;43.95;;;3.50;99.90;;;;;;4978786;28;20046;-75
2022/03/02 08:20:51;;;;;;;70.28;43.35;;;3.60;99.90;;;;;;4978568;28;20038;-76
2022/03/02 08:23:21;;;;;;;71.88;42.17;;;3.60;99.90;;;;;;4995260;28;20054;-76
2022/03/02 08:25:50;;;;;;;79.35;45.75;;;3.60;99.90;;;;;;4976038;28;20109;-76
2022/03/02 08:28:18;;;;;;;72.15;42.40;;;3.70;99.90;;;;;;4975918;28;20101;-77
2022/03/02 08:30:45;;;;;;;72.18;43.63;;;3.70;99.90;;;;;;4976147;28;20417;-78
2022/03/02 08:33:15;;;;;;;72.05;43.15;;;3.80;99.90;;;;;;4976036;28;20054;-77
2022/03/02 08:35:40;;;;;;;67.45;43.42;;;3.80;99.90;;;;;;4976131;28;20054;-77
2022/03/02 08:38:06;;;;;;;70.18;43.75;;;3.80;99.90;;;;;;4977073;28;20039;-77
2022/03/02 08:40:31;;;;;;;73.75;43.92;;;3.80;99.90;;;;;;4978545;28;20057;-77
2022/03/02 08:43:00;;;;;;;67.30;41.60;;;3.90;99.90;;;;;;4995326;28;20108;-75
2022/03/02 08:45:26;;;;;;;70.30;44.67;;;4.00;99.90;;;;;;4978680;28;20453;-77
2022/03/02 08:47:53;;;;;;;68.90;40.97;;;4.00;99.90;;;;;;4978411;28;20049;-77
2022/03/02 08:50:19;;;;;;;72.18;42.97;;;4.00;99.90;;;;;;4978253;28;20096;-77
2022/03/02 08:52:47;;;;;;;66.43;43.03;;;4.10;99.90;;;;;;4978019;28;20449;-77
2022/03/02 08:55:13;;;;;;;69.28;43.25;;;4.10;99.90;;;;;;4959225;28;20046;-76
2022/03/02 08:57:43;;;;;;;65.82;41.90;;;4.20;99.90;;;;;;4942626;28;20051;-77
2022/03/02 09:00:10;;;;;;;65.40;41.90;;;4.20;99.90;;;;;;4959013;28;20188;-77
2022/03/02 09:02:39;;;;;;;66.50;43.00;;;4.30;99.90;;;;;;4960312;28;20047;-76
2022/03/02 09:05:06;;;;;;;68.07;41.30;;;4.40;99.90;;;;;;4979642;28;20042;-76
2022/03/02 09:07:32;;;;;;;65.57;41.67;;;4.40;99.90;;;;;;4963305;28;20445;-76
2022/03/02 09:09:59;;;;;;;66.20;41.83;;;4.40;99.90;;;;;;4980762;28;20053;-75
2022/03/02 09:12:25;;;;;;;67.55;42.90;;;4.50;99.90;;;;;;4981849;28;20082;-76
2022/03/02 09:14:51;;;;;;;73.05;43.10;;;4.50;99.90;;;;;;4998722;28;20074;-76
2022/03/02 09:17:18;;;;;;;67.53;42.58;;;4.50;99.90;;;;;;4983579;28;20050;-77
2022/03/02 09:19:44;;;;;;;63.47;42.60;;;4.60;99.90;;;;;;4982054;28;20050;-77
2022/03/02 09:22:10;;;;;;;65.90;41.63;;;4.70;99.90;;;;;;4999159;28;20364;-76
2022/03/02 09:24:38;;;;;;;63.50;41.47;;;4.70;99.90;;;;;;4998229;28;20129;-75
2022/03/02 09:27:07;;;;;;;67.97;42.13;;;4.80;99.90;;;;;;4998734;28;20403;-76
2022/03/02 09:29:33;;;;;;;65.22;42.15;;;4.80;99.90;;;;;;4998388;28;20330;-76
2022/03/02 09:32:02;;;;;;;66.28;41.25;;;4.80;99.90;;;;;;4981444;28;20444;-76
2022/03/02 09:34:29;;;;;;;63.60;40.15;;;4.90;99.90;;;;;;4998853;28;20357;-76
2022/03/02 09:36:57;;;;;;;69.53;41.63;;;4.90;99.90;;;;;;4981258;28;20042;-75
2022/03/02 09:39:26;;;;;;;61.85;40.47;;;5.00;99.90;;;;;;4998628;28;20069;-77
2022/03/02 09:42:04;;;;;;;67.93;41.78;;;5.00;99.90;;;;;;4997769;28;20360;-78
2022/03/02 09:44:39;;;;;;;72.07;42.03;;;5.10;99.90;;;;;;4981748;28;20104;-76
2022/03/02 09:47:09;;;;;;;66.03;40.50;;;5.10;99.90;;;;;;4998361;28;20071;-77
2022/03/02 09:49:36;;;;;;;65.97;40.75;;;5.20;99.90;;;;;;4978439;28;20058;-76
2022/03/02 09:52:05;;;;;;;64.03;40.78;;;5.20;99.90;;;;;;4981365;28;20042;-77
2022/03/02 09:54:36;;;;;;;63.35;39.33;;;5.20;99.90;;;;;;4965005;28;20042;-77
2022/03/02 09:57:07;;;;;;;65.07;39.97;;;5.30;99.90;;;;;;4998121;28;20385;-77
2022/03/02 09:59:38;;;;;;;65.15;40.15;;;5.40;99.90;;;;;;4981082;28;20077;-78
2022/03/02 10:02:07;;;;;;;62.08;38.75;;;5.40;99.90;;;;;;4998256;28;20038;-77
2022/03/02 10:04:35;;;;;;;59.88;39.55;;;5.50;99.90;;;;;;4965374;28;20042;-77
2022/03/02 10:09:51;;;;;;;70.88;43.08;;;5.60;99.90;;;;;;4979996;28;20448;-77
2022/03/02 10:12:20;;;;;;;61.22;41.15;;;5.60;99.90;;;;;;4980745;28;20050;-76
2022/03/02 10:14:47;;;;;;;63.25;38.33;;;5.70;99.90;;;;;;4996910;28;20346;-77
2022/03/02 10:17:19;;;;;;;59.70;38.33;;;5.70;99.90;;;;;;4980661;28;20089;-77
2022/03/02 10:19:48;;;;;;;62.25;37.92;;;5.80;99.90;;;;;;4980723;28;20053;-76
2022/03/02 10:22:45;;;;;;;62.92;38.70;;;5.80;99.90;;;;;;4980504;28;20046;-77
2022/03/02 10:25:14;;;;;;;60.78;39.67;;;5.90;99.90;;;;;;4980553;28;20042;-77
2022/03/02 10:27:40;;;;;;;59.92;38.38;;;6.00;99.90;;;;;;4997537;28;20038;-78
2022/03/02 10:30:10;;;;;;;57.08;37.33;;;6.10;99.90;;;;;;4997264;28;20475;-77
2022/03/02 10:32:42;;;;;;;58.65;36.40;;;6.10;99.90;;;;;;4964528;28;20149;-77
2022/03/02 10:35:10;;;;;;;59.35;37.15;;;6.20;99.90;;;;;;4997534;28;20042;-76
2022/03/02 10:37:38;;;;;;;55.75;35.92;;;6.20;99.90;;;;;;4997411;28;20425;-76
2022/03/02 10:40:06;;;;;;;55.95;36.53;;;6.20;99.90;;;;;;4997476;28;20046;-76
2022/03/02 10:42:40;;;;;;;53.75;35.63;;;6.30;99.90;;;;;;4996845;28;20042;-78
2022/03/02 10:45:16;;;;;;;58.05;36.78;;;6.30;99.90;;;;;;4996803;28;20125;-77
2022/03/02 10:47:57;;;;;;;56.40;36.80;;;6.40;99.90;;;;;;4997850;28;20054;-76
2022/03/02 10:50:32;;;;;;;60.42;36.55;;;6.40;99.90;;;;;;4997424;28;20050;-75
2022/03/02 10:52:59;;;;;;;54.88;35.90;;;6.50;99.90;;;;;;4996566;28;20469;-77
2022/03/02 10:55:26;;;;;;;61.25;38.03;;;6.50;99.90;;;;;;4979927;28;20046;-76
2022/03/02 10:57:55;;;;;;;58.47;37.92;;;6.50;99.90;;;;;;4997147;28;20388;-77
2022/03/02 11:00:22;;;;;;;59.30;37.63;;;6.60;99.90;;;;;;4979543;28;20062;-78
2022/03/02 11:02:54;;;;;;;58.40;36.63;;;6.60;99.90;;;;;;4996877;28;20046;-77
2022/03/02 11:05:21;;;;;;;56.95;36.72;;;6.70;99.90;;;;;;4979747;28;20396;-78
2022/03/02 11:07:47;;;;;;;57.13;36.35;;;6.70;99.90;;;;;;4979742;28;20468;-77
2022/03/02 11:10:16;;;;;;;55.88;36.40;;;6.80;99.90;;;;;;4979727;28;20064;-76
2022/03/02 11:12:44;;;;;;;53.47;35.72;;;6.90;99.90;;;;;;4979668;28;20129;-76
2022/03/02 11:15:11;;;;;;;54.30;36.67;;;6.90;99.90;;;;;;4979672;28;20095;-76
2022/03/02 11:17:51;;;;;;;55.95;35.78;;;7.00;99.90;;;;;;4978964;28;20042;-78
2022/03/02 11:20:17;;;;;;;59.17;38.05;;;7.00;99.90;;;;;;4979795;28;20057;-78
2022/03/02 11:22:51;;;;;;;57.15;36.15;;;7.10;99.90;;;;;;4979282;28;20381;-78
2022/03/02 11:25:17;;;;;;;55.03;36.08;;;7.10;99.90;;;;;;4979004;28;20245;-76
2022/03/02 11:27:43;;;;;;;55.13;36.28;;;7.20;99.90;;;;;;4996569;28;20560;-78
2022/03/02 11:30:10;;;;;;;51.30;34.80;;;7.20;99.90;;;;;;4996671;28;20054;-76
2022/03/02 11:32:42;;;;;;;55.28;37.72;;;7.30;99.90;;;;;;4978799;28;20463;-78
2022/03/02 11:35:10;;;;;;;56.92;37.35;;;7.30;99.90;;;;;;4996387;28;20065;-77
2022/03/02 11:37:37;;;;;;;49.53;33.78;;;7.40;99.90;;;;;;4979175;28;20137;-77
2022/03/02 11:40:08;;;;;;;55.33;35.92;;;7.50;99.90;;;;;;4979534;28;20070;-76
2022/03/02 11:42:37;;;;;;;49.83;34.70;;;7.50;99.90;;;;;;4996157;28;20038;-79
2022/03/02 11:45:07;;;;;;;53.45;35.80;;;7.60;99.90;;;;;;4978969;28;20056;-78
2022/03/02 11:47:43;;;;;;;50.33;34.35;;;7.60;99.90;;;;;;4979144;28;20038;-77
2022/03/02 11:50:12;;;;;;;49.53;34.83;;;7.70;99.90;;;;;;4996147;28;20448;-76
2022/03/02 11:52:45;;;;;;;53.05;34.95;;;7.80;99.90;;;;;;4996098;28;20116;-78
2022/03/02 11:55:14;;;;;;;49.05;33.53;;;7.80;99.90;;;;;;4995845;28;20050;-76
2022/03/02 11:57:47;;;;;;;53.30;34.08;;;7.90;99.90;;;;;;4995959;28;20039;-76
2022/03/02 12:00:17;;;;;;;51.17;33.92;;;7.90;99.90;;;;;;4996077;28;20086;-77
2022/03/02 12:02:46;;;;;;;50.53;35.85;;;7.90;99.90;;;;;;4996216;28;20049;-77
2022/03/02 12:05:13;;;;;;;46.72;34.20;;;8.00;99.90;;;;;;4979098;28;20444;-76
2022/03/02 12:07:50;;;;;;;53.08;34.13;;;8.10;99.90;;;;;;4978740;28;20042;-77
2022/03/02 12:10:18;;;;;;;49.85;33.75;;;8.10;99.90;;;;;;4995823;28;20092;-77
2022/03/02 12:12:44;;;;;;;49.05;32.78;;;8.20;99.90;;;;;;4995820;28;20038;-75
2022/03/02 12:15:11;;;;;;;47.30;32.53;;;8.30;99.90;;;;;;4995928;28;20465;-75
2022/03/02 12:17:36;;;;;;;47.90;33.50;;;8.30;99.90;;;;;;4978885;28;20034;-76
2022/03/02 12:20:14;;;;;;;47.60;34.13;;;8.40;99.90;;;;;;4995991;28;20050;-75
2022/03/02 12:22:42;;;;;;;48.67;33.15;;;8.40;99.90;;;;;;4995509;28;20042;-75
2022/03/02 12:25:13;;;;;;;51.70;34.33;;;8.50;99.90;;;;;;4995322;28;20053;-76
2022/03/02 12:27:40;;;;;;;48.20;33.25;;;8.50;99.90;;;;;;4995527;28;20061;-73
2022/03/02 12:30:09;;;;;;;46.05;31.85;;;8.70;99.90;;;;;;4978139;28;20042;-77
2022/03/02 12:32:37;;;;;;;47.08;31.60;;;8.70;99.90;;;;;;4978567;28;20139;-75
2022/03/02 12:35:09;;;;;;;46.00;32.15;;;8.70;99.90;;;;;;4995144;28;20038;-75
2022/03/02 12:37:35;;;;;;;47.80;33.03;;;8.80;99.90;;;;;;4961678;28;20046;-76
2022/03/02 12:40:09;;;;;;;48.28;32.55;;;8.80;99.90;;;;;;4962602;28;20068;-76
2022/03/02 12:42:36;;;;;;;50.17;34.83;;;8.90;99.90;;;;;;4978644;28;20140;-76